sensor_id;sensor_type;location;lat;lon;timestamp;P1;durP1;ratioP1;P2;durP2;ratioP2
53549;SDS011;67273;52.914;-0.982;2023-02-28T00:01:38;3.22;;;2.08;;
53549;SDS011;67273;52.914;-0.982;2023-02-28T00:04:04;3.90;;;2.38;;
53549;SDS011;67273;52.914;-0.982;2023-02-28T00:06:30;3.60;;;2.10;;
53549;SDS011;67273;52.914;-0.982;2023-02-28T00:08:56;3.53;;;2.08;;
53549;SDS011;67273;52.914;-0.982;2023-02-28T00:11:22;2.50;;;1.90;;
53549;SDS011;67273;52.914;-0.982;2023-02-28T00:13:48;3.78;;;2.15;;
53549;SDS011;67273;52.914;-0.982;2023-02-28T00:16:14;2.55;;;1.65;;
53549;SDS011;67273;52.914;-0.982;2023-02-28T00:18:43;3.55;;;1.80;;
53549;SDS011;67273;52.914;-0.982;2023-02-28T00:21:08;3.00;;;2.00;;
53549;SDS011;67273;52.914;-0.982;2023-02-28T00:23:34;3.17;;;2.00;;
53549;SDS011;67273;52.914;-0.982;2023-02-28T00:26:00;3.33;;;1.98;;
53549;SDS011;67273;52.914;-0.982;2023-02-28T00:28:27;3.17;;;1.90;;
53549;SDS011;67273;52.914;-0.982;2023-02-28T00:30:52;3.60;;;2.00;;
53549;SDS011;67273;52.914;-0.982;2023-02-28T00:33:18;3.33;;;1.90;;
53549;SDS011;67273;52.914;-0.982;2023-02-28T00:35:46;2.75;;;1.75;;
53549;SDS011;67273;52.914;-0.982;2023-02-28T00:38:12;3.08;;;1.83;;
53549;SDS011;67273;52.914;-0.982;2023-02-28T00:40:38;2.75;;;1.75;;
53549;SDS011;67273;52.914;-0.982;2023-02-28T00:43:03;2.95;;;1.73;;
53549;SDS011;67273;52.914;-0.982;2023-02-28T00:45:29;3.10;;;1.73;;
53549;SDS011;67273;52.914;-0.982;2023-02-28T00:47:56;2.95;;;1.90;;
53549;SDS011;67273;52.914;-0.982;2023-02-28T00:50:22;2.00;;;1.60;;
53549;SDS011;67273;52.914;-0.982;2023-02-28T00:52:49;3.78;;;1.73;;
53549;SDS011;67273;52.914;-0.982;2023-02-28T00:55:15;2.50;;;1.30;;
53549;SDS011;67273;52.914;-0.982;2023-02-28T00:57:40;2.70;;;1.65;;
53549;SDS011;67273;52.914;-0.982;2023-02-28T01:00:07;3.08;;;1.70;;
53549;SDS011;67273;52.914;-0.982;2023-02-28T01:02:33;2.35;;;1.63;;
53549;SDS011;67273;52.914;-0.982;2023-02-28T01:04:59;2.70;;;1.65;;
53549;SDS011;67273;52.914;-0.982;2023-02-28T01:07:28;2.15;;;1.50;;
53549;SDS011;67273;52.914;-0.982;2023-02-28T01:09:55;2.97;;;1.58;;
53549;SDS011;67273;52.914;-0.982;2023-02-28T01:12:23;1.50;;;1.25;;
53549;SDS011;67273;52.914;-0.982;2023-02-28T01:14:49;2.78;;;1.60;;
53549;SDS011;67273;52.914;-0.982;2023-02-28T01:17:15;2.88;;;1.60;;
53549;SDS011;67273;52.914;-0.982;2023-02-28T01:19:41;2.80;;;1.67;;
53549;SDS011;67273;52.914;-0.982;2023-02-28T01:22:09;2.20;;;1.45;;
53549;SDS011;67273;52.914;-0.982;2023-02-28T01:24:34;1.58;;;1.33;;
53549;SDS011;67273;52.914;-0.982;2023-02-28T01:27:01;2.63;;;1.67;;
53549;SDS011;67273;52.914;-0.982;2023-02-28T01:29:27;2.97;;;1.48;;
53549;SDS011;67273;52.914;-0.982;2023-02-28T01:31:53;2.20;;;1.60;;
53549;SDS011;67273;52.914;-0.982;2023-02-28T01:34:19;1.95;;;1.40;;
53549;SDS011;67273;52.914;-0.982;2023-02-28T01:36:45;2.58;;;1.55;;
53549;SDS011;67273;52.914;-0.982;2023-02-28T01:39:11;2.15;;;1.45;;
53549;SDS011;67273;52.914;-0.982;2023-02-28T01:41:37;2.50;;;1.40;;
53549;SDS011;67273;52.914;-0.982;2023-02-28T01:44:06;2.75;;;1.60;;
53549;SDS011;67273;52.914;-0.982;2023-02-28T01:46:53;2.35;;;1.40;;
53549;SDS011;67273;52.914;-0.982;2023-02-28T01:49:19;1.65;;;1.33;;
53549;SDS011;67273;52.914;-0.982;2023-02-28T01:51:45;1.60;;;1.20;;
53549;SDS011;67273;52.914;-0.982;2023-02-28T01:54:16;2.45;;;1.40;;
53549;SDS011;67273;52.914;-0.982;2023-02-28T01:56:47;1.67;;;1.20;;
53549;SDS011;67273;52.914;-0.982;2023-02-28T01:59:21;2.03;;;1.30;;
53549;SDS011;67273;52.914;-0.982;2023-02-28T02:01:52;1.70;;;1.13;;
53549;SDS011;67273;52.914;-0.982;2023-02-28T02:04:18;1.52;;;1.13;;
53549;SDS011;67273;52.914;-0.982;2023-02-28T02:06:47;1.92;;;1.17;;
53549;SDS011;67273;52.914;-0.982;2023-02-28T02:09:13;1.63;;;1.13;;
53549;SDS011;67273;52.914;-0.982;2023-02-28T02:11:39;2.25;;;1.35;;
53549;SDS011;67273;52.914;-0.982;2023-02-28T02:14:13;2.00;;;1.27;;
53549;SDS011;67273;52.914;-0.982;2023-02-28T02:17:10;2.75;;;1.27;;
53549;SDS011;67273;52.914;-0.982;2023-02-28T02:19:53;1.48;;;1.10;;
53549;SDS011;67273;52.914;-0.982;2023-02-28T02:22:46;2.03;;;1.20;;
53549;SDS011;67273;52.914;-0.982;2023-02-28T02:25:44;1.50;;;1.30;;
53549;SDS011;67273;52.914;-0.982;2023-02-28T02:28:28;3.20;;;1.30;;
53549;SDS011;67273;52.914;-0.982;2023-02-28T02:34:42;2.00;;;1.20;;
53549;SDS011;67273;52.914;-0.982;2023-02-28T02:37:28;1.88;;;1.42;;
53549;SDS011;67273;52.914;-0.982;2023-02-28T02:40:04;1.27;;;1.17;;
53549;SDS011;67273;52.914;-0.982;2023-02-28T02:42:40;2.05;;;1.20;;
53549;SDS011;67273;52.914;-0.982;2023-02-28T02:45:12;1.77;;;1.10;;
53549;SDS011;67273;52.914;-0.982;2023-02-28T02:47:44;2.05;;;1.33;;
53549;SDS011;67273;52.914;-0.982;2023-02-28T02:50:17;1.10;;;1.00;;
53549;SDS011;67273;52.914;-0.982;2023-02-28T02:52:52;1.23;;;1.02;;
53549;SDS011;67273;52.914;-0.982;2023-02-28T02:55:23;1.27;;;1.10;;
53549;SDS011;67273;52.914;-0.982;2023-02-28T02:57:51;2.13;;;1.20;;
53549;SDS011;67273;52.914;-0.982;2023-02-28T03:00:26;2.05;;;1.25;;
53549;SDS011;67273;52.914;-0.982;2023-02-28T03:02:57;2.53;;;1.40;;
53549;SDS011;67273;52.914;-0.982;2023-02-28T03:05:30;2.33;;;1.20;;
53549;SDS011;67273;52.914;-0.982;2023-02-28T03:08:06;1.95;;;1.30;;
53549;SDS011;67273;52.914;-0.982;2023-02-28T03:10:39;1.83;;;1.20;;
53549;SDS011;67273;52.914;-0.982;2023-02-28T03:13:15;1.63;;;1.30;;
53549;SDS011;67273;52.914;-0.982;2023-02-28T03:15:58;1.30;;;1.00;;
53549;SDS011;67273;52.914;-0.982;2023-02-28T03:18:37;1.35;;;1.20;;
53549;SDS011;67273;52.914;-0.982;2023-02-28T03:21:17;2.17;;;1.20;;
53549;SDS011;67273;52.914;-0.982;2023-02-28T03:23:53;2.15;;;1.33;;
53549;SDS011;67273;52.914;-0.982;2023-02-28T03:26:32;1.20;;;1.00;;
53549;SDS011;67273;52.914;-0.982;2023-02-28T03:29:06;1.52;;;1.02;;
53549;SDS011;67273;52.914;-0.982;2023-02-28T03:31:44;1.60;;;1.15;;
53549;SDS011;67273;52.914;-0.982;2023-02-28T03:34:19;1.70;;;1.23;;
53549;SDS011;67273;52.914;-0.982;2023-02-28T03:36:54;1.48;;;1.23;;
53549;SDS011;67273;52.914;-0.982;2023-02-28T03:39:27;1.50;;;1.10;;
53549;SDS011;67273;52.914;-0.982;2023-02-28T03:42:01;1.35;;;1.17;;
53549;SDS011;67273;52.914;-0.982;2023-02-28T03:44:34;1.30;;;1.20;;
53549;SDS011;67273;52.914;-0.982;2023-02-28T03:47:07;2.78;;;1.30;;
53549;SDS011;67273;52.914;-0.982;2023-02-28T03:49:39;1.50;;;1.20;;
53549;SDS011;67273;52.914;-0.982;2023-02-28T03:52:15;2.10;;;1.35;;
53549;SDS011;67273;52.914;-0.982;2023-02-28T03:54:47;1.92;;;1.20;;
53549;SDS011;67273;52.914;-0.982;2023-02-28T03:57:22;1.35;;;1.23;;
53549;SDS011;67273;52.914;-0.982;2023-02-28T03:59:59;1.35;;;1.10;;
53549;SDS011;67273;52.914;-0.982;2023-02-28T04:02:38;1.48;;;1.13;;
53549;SDS011;67273;52.914;-0.982;2023-02-28T04:05:07;2.45;;;1.17;;
53549;SDS011;67273;52.914;-0.982;2023-02-28T04:07:35;1.75;;;1.15;;
53549;SDS011;67273;52.914;-0.982;2023-02-28T04:10:02;1.13;;;1.02;;
53549;SDS011;67273;52.914;-0.982;2023-02-28T04:12:28;1.20;;;1.10;;
53549;SDS011;67273;52.914;-0.982;2023-02-28T04:14:54;2.05;;;1.48;;
53549;SDS011;67273;52.914;-0.982;2023-02-28T04:17:20;1.85;;;1.40;;
53549;SDS011;67273;52.914;-0.982;2023-02-28T04:19:46;2.13;;;1.40;;
53549;SDS011;67273;52.914;-0.982;2023-02-28T04:22:12;3.40;;;1.40;;
53549;SDS011;67273;52.914;-0.982;2023-02-28T04:24:40;1.88;;;1.52;;
53549;SDS011;67273;52.914;-0.982;2023-02-28T04:27:06;1.60;;;1.27;;
53549;SDS011;67273;52.914;-0.982;2023-02-28T04:29:33;1.55;;;1.40;;
53549;SDS011;67273;52.914;-0.982;2023-02-28T04:32:00;1.75;;;1.48;;
53549;SDS011;67273;52.914;-0.982;2023-02-28T04:34:27;1.83;;;1.40;;
53549;SDS011;67273;52.914;-0.982;2023-02-28T04:36:54;1.98;;;1.40;;
53549;SDS011;67273;52.914;-0.982;2023-02-28T04:39:22;1.50;;;1.40;;
53549;SDS011;67273;52.914;-0.982;2023-02-28T04:41:50;2.53;;;1.60;;
53549;SDS011;67273;52.914;-0.982;2023-02-28T04:44:16;2.17;;;1.55;;
53549;SDS011;67273;52.914;-0.982;2023-02-28T04:46:42;1.98;;;1.77;;
53549;SDS011;67273;52.914;-0.982;2023-02-28T04:49:08;1.83;;;1.52;;
53549;SDS011;67273;52.914;-0.982;2023-02-28T04:51:35;1.70;;;1.52;;
53549;SDS011;67273;52.914;-0.982;2023-02-28T04:54:01;2.25;;;1.60;;
53549;SDS011;67273;52.914;-0.982;2023-02-28T04:56:27;1.92;;;1.60;;
53549;SDS011;67273;52.914;-0.982;2023-02-28T04:58:54;1.60;;;1.50;;
53549;SDS011;67273;52.914;-0.982;2023-02-28T05:01:21;1.67;;;1.40;;
53549;SDS011;67273;52.914;-0.982;2023-02-28T05:03:49;1.65;;;1.55;;
53549;SDS011;67273;52.914;-0.982;2023-02-28T05:06:15;1.70;;;1.60;;
53549;SDS011;67273;52.914;-0.982;2023-02-28T05:08:42;1.90;;;1.70;;
53549;SDS011;67273;52.914;-0.982;2023-02-28T05:11:12;2.15;;;1.70;;
53549;SDS011;67273;52.914;-0.982;2023-02-28T05:13:40;2.40;;;1.73;;
53549;SDS011;67273;52.914;-0.982;2023-02-28T05:16:07;2.60;;;2.00;;
53549;SDS011;67273;52.914;-0.982;2023-02-28T05:18:33;1.88;;;1.65;;
53549;SDS011;67273;52.914;-0.982;2023-02-28T05:20:59;2.10;;;1.77;;
53549;SDS011;67273;52.914;-0.982;2023-02-28T05:23:27;1.70;;;1.60;;
53549;SDS011;67273;52.914;-0.982;2023-02-28T05:25:53;1.90;;;1.70;;
53549;SDS011;67273;52.914;-0.982;2023-02-28T05:28:20;2.03;;;1.70;;
53549;SDS011;67273;52.914;-0.982;2023-02-28T05:30:46;2.28;;;1.60;;
53549;SDS011;67273;52.914;-0.982;2023-02-28T05:33:13;1.67;;;1.45;;
53549;SDS011;67273;52.914;-0.982;2023-02-28T05:35:39;1.90;;;1.58;;
53549;SDS011;67273;52.914;-0.982;2023-02-28T05:38:05;1.60;;;1.50;;
53549;SDS011;67273;52.914;-0.982;2023-02-28T05:40:31;2.10;;;1.77;;
53549;SDS011;67273;52.914;-0.982;2023-02-28T05:42:57;2.13;;;1.60;;
53549;SDS011;67273;52.914;-0.982;2023-02-28T05:45:23;1.63;;;1.40;;
53549;SDS011;67273;52.914;-0.982;2023-02-28T05:47:48;3.13;;;1.50;;
53549;SDS011;67273;52.914;-0.982;2023-02-28T05:50:19;1.63;;;1.52;;
53549;SDS011;67273;52.914;-0.982;2023-02-28T05:52:48;2.03;;;1.48;;
53549;SDS011;67273;52.914;-0.982;2023-02-28T05:55:14;1.95;;;1.48;;
53549;SDS011;67273;52.914;-0.982;2023-02-28T05:57:40;1.77;;;1.55;;
53549;SDS011;67273;52.914;-0.982;2023-02-28T06:00:06;1.60;;;1.42;;
53549;SDS011;67273;52.914;-0.982;2023-02-28T06:02:38;1.90;;;1.50;;
53549;SDS011;67273;52.914;-0.982;2023-02-28T06:05:04;1.55;;;1.45;;
53549;SDS011;67273;52.914;-0.982;2023-02-28T06:07:32;2.25;;;1.30;;
53549;SDS011;67273;52.914;-0.982;2023-02-28T06:09:58;2.30;;;1.58;;
53549;SDS011;67273;52.914;-0.982;2023-02-28T06:12:23;1.58;;;1.48;;
53549;SDS011;67273;52.914;-0.982;2023-02-28T06:14:49;1.42;;;1.33;;
53549;SDS011;67273;52.914;-0.982;2023-02-28T06:17:15;2.30;;;1.40;;
53549;SDS011;67273;52.914;-0.982;2023-02-28T06:19:40;1.40;;;1.30;;
53549;SDS011;67273;52.914;-0.982;2023-02-28T06:22:06;1.75;;;1.60;;
53549;SDS011;67273;52.914;-0.982;2023-02-28T06:24:33;1.45;;;1.35;;
53549;SDS011;67273;52.914;-0.982;2023-02-28T06:26:59;1.48;;;1.35;;
53549;SDS011;67273;52.914;-0.982;2023-02-28T06:29:30;1.40;;;1.30;;
53549;SDS011;67273;52.914;-0.982;2023-02-28T06:31:56;1.55;;;1.30;;
53549;SDS011;67273;52.914;-0.982;2023-02-28T06:34:21;1.77;;;1.40;;
53549;SDS011;67273;52.914;-0.982;2023-02-28T06:36:49;1.90;;;1.40;;
53549;SDS011;67273;52.914;-0.982;2023-02-28T06:39:16;1.40;;;1.30;;
53549;SDS011;67273;52.914;-0.982;2023-02-28T06:41:44;1.63;;;1.25;;
53549;SDS011;67273;52.914;-0.982;2023-02-28T06:44:12;1.30;;;1.20;;
53549;SDS011;67273;52.914;-0.982;2023-02-28T06:46:41;1.38;;;1.27;;
53549;SDS011;67273;52.914;-0.982;2023-02-28T06:49:09;1.27;;;1.13;;
53549;SDS011;67273;52.914;-0.982;2023-02-28T06:51:39;1.98;;;1.30;;
53549;SDS011;67273;52.914;-0.982;2023-02-28T06:54:08;1.95;;;1.40;;
53549;SDS011;67273;52.914;-0.982;2023-02-28T06:56:36;1.65;;;1.30;;
53549;SDS011;67273;52.914;-0.982;2023-02-28T06:59:06;1.42;;;1.33;;
53549;SDS011;67273;52.914;-0.982;2023-02-28T07:01:35;1.30;;;1.20;;
53549;SDS011;67273;52.914;-0.982;2023-02-28T07:04:08;1.40;;;1.30;;
53549;SDS011;67273;52.914;-0.982;2023-02-28T07:06:36;1.60;;;1.38;;
53549;SDS011;67273;52.914;-0.982;2023-02-28T07:09:04;1.90;;;1.50;;
53549;SDS011;67273;52.914;-0.982;2023-02-28T07:11:32;2.65;;;1.52;;
53549;SDS011;67273;52.914;-0.982;2023-02-28T07:14:02;1.42;;;1.33;;
53549;SDS011;67273;52.914;-0.982;2023-02-28T07:16:31;1.38;;;1.27;;
53549;SDS011;67273;52.914;-0.982;2023-02-28T07:18:59;2.08;;;1.50;;
53549;SDS011;67273;52.914;-0.982;2023-02-28T07:21:27;1.60;;;1.50;;
53549;SDS011;67273;52.914;-0.982;2023-02-28T07:23:56;1.58;;;1.35;;
53549;SDS011;67273;52.914;-0.982;2023-02-28T07:26:24;2.45;;;1.70;;
53549;SDS011;67273;52.914;-0.982;2023-02-28T07:28:51;1.15;;;1.10;;
53549;SDS011;67273;52.914;-0.982;2023-02-28T07:31:21;1.58;;;1.40;;
53549;SDS011;67273;52.914;-0.982;2023-02-28T07:33:51;1.60;;;1.35;;
53549;SDS011;67273;52.914;-0.982;2023-02-28T07:36:20;1.73;;;1.52;;
53549;SDS011;67273;52.914;-0.982;2023-02-28T07:38:47;1.40;;;1.30;;
53549;SDS011;67273;52.914;-0.982;2023-02-28T07:41:15;2.00;;;1.40;;
53549;SDS011;67273;52.914;-0.982;2023-02-28T07:43:42;1.50;;;1.40;;
53549;SDS011;67273;52.914;-0.982;2023-02-28T07:46:11;1.30;;;1.20;;
53549;SDS011;67273;52.914;-0.982;2023-02-28T07:48:41;1.52;;;1.40;;
53549;SDS011;67273;52.914;-0.982;2023-02-28T07:51:09;1.85;;;1.27;;
53549;SDS011;67273;52.914;-0.982;2023-02-28T07:53:36;1.50;;;1.40;;
53549;SDS011;67273;52.914;-0.982;2023-02-28T07:56:06;1.42;;;1.15;;
53549;SDS011;67273;52.914;-0.982;2023-02-28T07:58:37;1.67;;;1.30;;
53549;SDS011;67273;52.914;-0.982;2023-02-28T08:01:07;2.33;;;1.17;;
53549;SDS011;67273;52.914;-0.982;2023-02-28T08:03:37;1.50;;;1.40;;
53549;SDS011;67273;52.914;-0.982;2023-02-28T08:06:06;1.52;;;1.40;;
53549;SDS011;67273;52.914;-0.982;2023-02-28T08:08:43;1.73;;;1.30;;
53549;SDS011;67273;52.914;-0.982;2023-02-28T08:11:10;1.20;;;1.10;;
53549;SDS011;67273;52.914;-0.982;2023-02-28T08:13:36;1.90;;;1.30;;
53549;SDS011;67273;52.914;-0.982;2023-02-28T08:16:02;1.45;;;1.20;;
53549;SDS011;67273;52.914;-0.982;2023-02-28T08:18:28;2.67;;;1.17;;
53549;SDS011;67273;52.914;-0.982;2023-02-28T08:20:54;2.83;;;1.20;;
53549;SDS011;67273;52.914;-0.982;2023-02-28T08:23:20;2.03;;;1.40;;
53549;SDS011;67273;52.914;-0.982;2023-02-28T08:25:53;3.08;;;1.45;;
53549;SDS011;67273;52.914;-0.982;2023-02-28T08:28:20;3.45;;;1.35;;
53549;SDS011;67273;52.914;-0.982;2023-02-28T08:30:46;8.52;;;1.58;;
53549;SDS011;67273;52.914;-0.982;2023-02-28T08:33:17;4.65;;;1.55;;
53549;SDS011;67273;52.914;-0.982;2023-02-28T08:35:43;2.78;;;1.23;;
53549;SDS011;67273;52.914;-0.982;2023-02-28T08:38:10;3.70;;;1.60;;
53549;SDS011;67273;52.914;-0.982;2023-02-28T08:40:37;2.83;;;1.35;;
53549;SDS011;67273;52.914;-0.982;2023-02-28T08:43:07;2.25;;;1.40;;
53549;SDS011;67273;52.914;-0.982;2023-02-28T08:45:34;3.78;;;1.33;;
53549;SDS011;67273;52.914;-0.982;2023-02-28T08:48:00;2.97;;;1.63;;
53549;SDS011;67273;52.914;-0.982;2023-02-28T08:50:28;3.05;;;1.40;;
53549;SDS011;67273;52.914;-0.982;2023-02-28T08:52:56;2.38;;;1.20;;
53549;SDS011;67273;52.914;-0.982;2023-02-28T08:55:24;3.42;;;1.23;;
53549;SDS011;67273;52.914;-0.982;2023-02-28T08:57:52;2.50;;;1.40;;
53549;SDS011;67273;52.914;-0.982;2023-02-28T09:00:23;3.85;;;1.33;;
53549;SDS011;67273;52.914;-0.982;2023-02-28T09:02:51;4.43;;;1.50;;
53549;SDS011;67273;52.914;-0.982;2023-02-28T09:05:21;4.53;;;1.58;;
53549;SDS011;67273;52.914;-0.982;2023-02-28T09:07:49;5.63;;;1.80;;
53549;SDS011;67273;52.914;-0.982;2023-02-28T09:10:16;5.15;;;1.55;;
53549;SDS011;67273;52.914;-0.982;2023-02-28T09:12:44;6.53;;;1.65;;
53549;SDS011;67273;52.914;-0.982;2023-02-28T09:15:13;3.92;;;1.70;;
53549;SDS011;67273;52.914;-0.982;2023-02-28T09:17:42;5.82;;;1.58;;
53549;SDS011;67273;52.914;-0.982;2023-02-28T09:20:09;3.33;;;1.52;;
53549;SDS011;67273;52.914;-0.982;2023-02-28T09:22:37;5.70;;;1.50;;
53549;SDS011;67273;52.914;-0.982;2023-02-28T09:25:06;4.63;;;1.38;;
53549;SDS011;67273;52.914;-0.982;2023-02-28T09:27:34;2.83;;;1.45;;
53549;SDS011;67273;52.914;-0.982;2023-02-28T09:30:06;3.05;;;1.40;;
53549;SDS011;67273;52.914;-0.982;2023-02-28T09:32:35;3.33;;;1.10;;
53549;SDS011;67273;52.914;-0.982;2023-02-28T09:35:05;7.00;;;1.77;;
53549;SDS011;67273;52.914;-0.982;2023-02-28T09:37:33;3.85;;;1.33;;
53549;SDS011;67273;52.914;-0.982;2023-02-28T09:39:59;3.03;;;1.25;;
53549;SDS011;67273;52.914;-0.982;2023-02-28T09:42:28;4.45;;;1.20;;
53549;SDS011;67273;52.914;-0.982;2023-02-28T09:44:59;4.57;;;1.40;;
53549;SDS011;67273;52.914;-0.982;2023-02-28T09:47:27;5.95;;;1.50;;
53549;SDS011;67273;52.914;-0.982;2023-02-28T09:49:59;4.45;;;1.02;;
53549;SDS011;67273;52.914;-0.982;2023-02-28T09:52:38;3.42;;;1.02;;
53549;SDS011;67273;52.914;-0.982;2023-02-28T09:55:15;4.30;;;1.20;;
53549;SDS011;67273;52.914;-0.982;2023-02-28T09:57:55;2.85;;;1.45;;
53549;SDS011;67273;52.914;-0.982;2023-02-28T10:00:27;5.05;;;1.15;;
53549;SDS011;67273;52.914;-0.982;2023-02-28T10:05:56;3.42;;;1.25;;
53549;SDS011;67273;52.914;-0.982;2023-02-28T10:08:31;3.42;;;1.15;;
53549;SDS011;67273;52.914;-0.982;2023-02-28T10:11:07;4.45;;;0.90;;
53549;SDS011;67273;52.914;-0.982;2023-02-28T10:13:40;2.55;;;1.00;;
53549;SDS011;67273;52.914;-0.982;2023-02-28T10:16:20;1.95;;;0.98;;
53549;SDS011;67273;52.914;-0.982;2023-02-28T10:18:52;3.58;;;1.00;;
53549;SDS011;67273;52.914;-0.982;2023-02-28T10:21:26;1.45;;;0.90;;
53549;SDS011;67273;52.914;-0.982;2023-02-28T10:23:59;2.88;;;1.15;;
53549;SDS011;67273;52.914;-0.982;2023-02-28T10:26:37;2.42;;;1.30;;
53549;SDS011;67273;52.914;-0.982;2023-02-28T10:29:08;3.63;;;1.23;;
53549;SDS011;67273;52.914;-0.982;2023-02-28T10:31:35;3.45;;;1.67;;
53549;SDS011;67273;52.914;-0.982;2023-02-28T10:34:04;3.53;;;1.60;;
53549;SDS011;67273;52.914;-0.982;2023-02-28T10:36:33;3.97;;;1.30;;
53549;SDS011;67273;52.914;-0.982;2023-02-28T10:38:59;1.75;;;1.05;;
53549;SDS011;67273;52.914;-0.982;2023-02-28T10:41:29;3.60;;;1.50;;
53549;SDS011;67273;52.914;-0.982;2023-02-28T10:44:14;4.63;;;1.33;;
53549;SDS011;67273;52.914;-0.982;2023-02-28T10:49:14;3.75;;;1.45;;
53549;SDS011;67273;52.914;-0.982;2023-02-28T10:51:46;2.47;;;1.20;;
53549;SDS011;67273;52.914;-0.982;2023-02-28T10:54:18;3.85;;;1.40;;
53549;SDS011;67273;52.914;-0.982;2023-02-28T10:57:01;2.58;;;1.40;;
53549;SDS011;67273;52.914;-0.982;2023-02-28T10:59:32;3.45;;;1.58;;
53549;SDS011;67273;52.914;-0.982;2023-02-28T11:01:58;2.78;;;1.17;;
53549;SDS011;67273;52.914;-0.982;2023-02-28T11:04:34;2.95;;;1.20;;
53549;SDS011;67273;52.914;-0.982;2023-02-28T11:07:05;4.40;;;1.20;;
53549;SDS011;67273;52.914;-0.982;2023-02-28T11:09:33;3.05;;;1.20;;
53549;SDS011;67273;52.914;-0.982;2023-02-28T11:12:00;3.95;;;1.00;;
53549;SDS011;67273;52.914;-0.982;2023-02-28T11:14:27;1.85;;;1.13;;
53549;SDS011;67273;52.914;-0.982;2023-02-28T11:16:56;3.33;;;1.00;;
53549;SDS011;67273;52.914;-0.982;2023-02-28T11:19:38;2.75;;;0.95;;
53549;SDS011;67273;52.914;-0.982;2023-02-28T11:22:07;3.65;;;1.13;;
53549;SDS011;67273;52.914;-0.982;2023-02-28T11:24:35;2.30;;;0.90;;
53549;SDS011;67273;52.914;-0.982;2023-02-28T11:27:10;2.92;;;1.13;;
53549;SDS011;67273;52.914;-0.982;2023-02-28T11:29:50;3.50;;;1.08;;
53549;SDS011;67273;52.914;-0.982;2023-02-28T11:32:18;1.63;;;0.98;;
53549;SDS011;67273;52.914;-0.982;2023-02-28T11:34:45;0.88;;;0.80;;
53549;SDS011;67273;52.914;-0.982;2023-02-28T11:37:14;2.00;;;0.95;;
53549;SDS011;67273;52.914;-0.982;2023-02-28T11:39:43;2.40;;;0.90;;
53549;SDS011;67273;52.914;-0.982;2023-02-28T11:42:14;3.03;;;0.98;;
53549;SDS011;67273;52.914;-0.982;2023-02-28T11:45:03;1.65;;;0.90;;
53549;SDS011;67273;52.914;-0.982;2023-02-28T11:47:42;3.53;;;0.88;;
53549;SDS011;67273;52.914;-0.982;2023-02-28T11:50:21;3.00;;;1.02;;
53549;SDS011;67273;52.914;-0.982;2023-02-28T11:53:00;2.67;;;0.90;;
53549;SDS011;67273;52.914;-0.982;2023-02-28T11:55:30;3.60;;;0.77;;
53549;SDS011;67273;52.914;-0.982;2023-02-28T12:00:56;4.93;;;0.90;;
53549;SDS011;67273;52.914;-0.982;2023-02-28T12:03:32;1.98;;;0.80;;
53549;SDS011;67273;52.914;-0.982;2023-02-28T12:06:11;4.05;;;1.20;;
53549;SDS011;67273;52.914;-0.982;2023-02-28T12:08:46;2.45;;;0.95;;
53549;SDS011;67273;52.914;-0.982;2023-02-28T12:11:21;2.33;;;0.90;;
53549;SDS011;67273;52.914;-0.982;2023-02-28T12:13:58;2.35;;;1.05;;
53549;SDS011;67273;52.914;-0.982;2023-02-28T12:16:42;3.22;;;1.27;;
53549;SDS011;67273;52.914;-0.982;2023-02-28T12:19:18;2.00;;;0.73;;
53549;SDS011;67273;52.914;-0.982;2023-02-28T12:21:56;2.85;;;1.00;;
53549;SDS011;67273;52.914;-0.982;2023-02-28T12:24:47;2.72;;;0.85;;
53549;SDS011;67273;52.914;-0.982;2023-02-28T12:27:38;2.20;;;0.82;;
53549;SDS011;67273;52.914;-0.982;2023-02-28T12:30:13;1.45;;;0.70;;
53549;SDS011;67273;52.914;-0.982;2023-02-28T12:32:44;3.67;;;0.90;;
53549;SDS011;67273;52.914;-0.982;2023-02-28T12:35:13;1.02;;;0.73;;
53549;SDS011;67273;52.914;-0.982;2023-02-28T12:37:41;1.38;;;0.80;;
53549;SDS011;67273;52.914;-0.982;2023-02-28T12:40:15;2.35;;;0.80;;
53549;SDS011;67273;52.914;-0.982;2023-02-28T12:42:44;3.40;;;0.80;;
53549;SDS011;67273;52.914;-0.982;2023-02-28T12:45:15;5.65;;;1.00;;
53549;SDS011;67273;52.914;-0.982;2023-02-28T12:47:45;2.78;;;0.85;;
53549;SDS011;67273;52.914;-0.982;2023-02-28T12:50:16;1.38;;;0.73;;
53549;SDS011;67273;52.914;-0.982;2023-02-28T12:52:46;2.05;;;0.90;;
53549;SDS011;67273;52.914;-0.982;2023-02-28T12:55:21;2.15;;;0.75;;
53549;SDS011;67273;52.914;-0.982;2023-02-28T12:57:56;1.95;;;0.60;;
53549;SDS011;67273;52.914;-0.982;2023-02-28T13:00:29;3.03;;;0.98;;
53549;SDS011;67273;52.914;-0.982;2023-02-28T13:03:06;1.80;;;1.27;;
53549;SDS011;67273;52.914;-0.982;2023-02-28T13:05:54;3.05;;;1.15;;
53549;SDS011;67273;52.914;-0.982;2023-02-28T13:08:41;2.20;;;1.10;;
53549;SDS011;67273;52.914;-0.982;2023-02-28T13:11:26;3.35;;;1.60;;
53549;SDS011;67273;52.914;-0.982;2023-02-28T13:13:58;5.03;;;1.40;;
53549;SDS011;67273;52.914;-0.982;2023-02-28T13:16:26;3.22;;;1.40;;
53549;SDS011;67273;52.914;-0.982;2023-02-28T13:18:52;2.33;;;1.38;;
53549;SDS011;67273;52.914;-0.982;2023-02-28T13:21:41;4.03;;;1.60;;
53549;SDS011;67273;52.914;-0.982;2023-02-28T13:24:10;1.23;;;1.13;;
53549;SDS011;67273;52.914;-0.982;2023-02-28T13:29:41;2.08;;;1.40;;
53549;SDS011;67273;52.914;-0.982;2023-02-28T13:32:19;3.50;;;1.60;;
53549;SDS011;67273;52.914;-0.982;2023-02-28T13:35:15;3.75;;;1.65;;
53549;SDS011;67273;52.914;-0.982;2023-02-28T13:38:22;1.92;;;1.30;;
53549;SDS011;67273;52.914;-0.982;2023-02-28T13:40:50;4.20;;;1.50;;
53549;SDS011;67273;52.914;-0.982;2023-02-28T13:43:16;2.35;;;1.67;;
53549;SDS011;67273;52.914;-0.982;2023-02-28T13:48:35;2.40;;;1.42;;
53549;SDS011;67273;52.914;-0.982;2023-02-28T13:54:11;2.03;;;1.60;;
53549;SDS011;67273;52.914;-0.982;2023-02-28T13:56:50;3.28;;;1.50;;
53549;SDS011;67273;52.914;-0.982;2023-02-28T13:59:26;2.05;;;1.60;;
53549;SDS011;67273;52.914;-0.982;2023-02-28T14:02:06;2.22;;;1.73;;
53549;SDS011;67273;52.914;-0.982;2023-02-28T14:04:56;5.13;;;2.80;;
53549;SDS011;67273;52.914;-0.982;2023-02-28T14:07:26;5.45;;;3.72;;
53549;SDS011;67273;52.914;-0.982;2023-02-28T14:09:56;6.50;;;3.75;;
53549;SDS011;67273;52.914;-0.982;2023-02-28T14:15:43;6.97;;;3.72;;
53549;SDS011;67273;52.914;-0.982;2023-02-28T14:18:17;4.82;;;3.33;;
53549;SDS011;67273;52.914;-0.982;2023-02-28T14:20:55;4.93;;;3.50;;
53549;SDS011;67273;52.914;-0.982;2023-02-28T14:23:31;6.55;;;3.50;;
53549;SDS011;67273;52.914;-0.982;2023-02-28T14:26:16;6.60;;;3.17;;
53549;SDS011;67273;52.914;-0.982;2023-02-28T14:28:56;4.38;;;3.30;;
53549;SDS011;67273;52.914;-0.982;2023-02-28T14:31:40;6.30;;;3.70;;
53549;SDS011;67273;52.914;-0.982;2023-02-28T14:34:20;5.00;;;3.15;;
53549;SDS011;67273;52.914;-0.982;2023-02-28T14:36:58;4.88;;;3.22;;
53549;SDS011;67273;52.914;-0.982;2023-02-28T14:39:26;3.80;;;2.90;;
53549;SDS011;67273;52.914;-0.982;2023-02-28T14:41:56;3.78;;;2.58;;
53549;SDS011;67273;52.914;-0.982;2023-02-28T14:44:24;3.88;;;2.63;;
53549;SDS011;67273;52.914;-0.982;2023-02-28T14:46:52;6.38;;;2.90;;
53549;SDS011;67273;52.914;-0.982;2023-02-28T14:49:23;3.70;;;2.67;;
53549;SDS011;67273;52.914;-0.982;2023-02-28T14:52:01;3.53;;;2.70;;
53549;SDS011;67273;52.914;-0.982;2023-02-28T14:54:31;4.78;;;2.80;;
53549;SDS011;67273;52.914;-0.982;2023-02-28T14:56:57;3.47;;;2.38;;
53549;SDS011;67273;52.914;-0.982;2023-02-28T14:59:23;3.10;;;2.50;;
53549;SDS011;67273;52.914;-0.982;2023-02-28T15:01:51;3.13;;;2.30;;
53549;SDS011;67273;52.914;-0.982;2023-02-28T15:04:26;3.53;;;2.40;;
53549;SDS011;67273;52.914;-0.982;2023-02-28T15:07:09;3.17;;;2.10;;
53549;SDS011;67273;52.914;-0.982;2023-02-28T15:09:36;3.80;;;2.30;;
53549;SDS011;67273;52.914;-0.982;2023-02-28T15:12:02;2.72;;;2.03;;
53549;SDS011;67273;52.914;-0.982;2023-02-28T15:14:28;3.95;;;2.40;;
53549;SDS011;67273;52.914;-0.982;2023-02-28T15:16:55;2.55;;;2.13;;
53549;SDS011;67273;52.914;-0.982;2023-02-28T15:19:26;2.97;;;2.22;;